createdAt,value
2023-03-25T00:00:28.641Z,120
2023-03-25T00:01:35.418Z,111
2023-03-25T00:02:42.332Z,115
2023-03-25T00:03:49.237Z,115
2023-03-25T00:04:56.132Z,109
2023-03-25T00:06:02.930Z,108
2023-03-25T00:07:09.951Z,104
2023-03-25T00:08:17.609Z,105
2023-03-25T00:09:24.494Z,108
2023-03-25T00:10:31.326Z,108
2023-03-25T00:11:38.210Z,112
2023-03-25T00:12:45.122Z,127
2023-03-25T00:13:51.939Z,119
2023-03-25T00:14:58.932Z,123
2023-03-25T00:16:05.873Z,123
2023-03-25T00:17:12.883Z,123
2023-03-25T00:18:19.769Z,124
2023-03-25T00:19:26.629Z,120
2023-03-25T00:20:33.632Z,129
2023-03-25T00:21:40.536Z,127
2023-03-25T00:22:49.881Z,135
2023-03-25T00:23:56.685Z,131
2023-03-25T00:25:03.625Z,122
2023-03-25T00:26:13.201Z,130
2023-03-25T00:27:19.998Z,122
2023-03-25T00:28:26.946Z,124
2023-03-25T00:29:33.843Z,116
2023-03-25T00:30:40.710Z,112
2023-03-25T00:31:47.492Z,116
2023-03-25T00:32:54.380Z,119
2023-03-25T00:34:04.156Z,119
2023-03-25T00:35:10.997Z,118
2023-03-25T00:36:17.991Z,114
2023-03-25T00:37:24.853Z,110
2023-03-25T00:38:31.676Z,108
2023-03-25T00:39:39.343Z,102
2023-03-25T00:40:46.188Z,102
2023-03-25T00:41:52.980Z,95
2023-03-25T00:42:59.846Z,96
2023-03-25T00:44:06.696Z,90
2023-03-25T00:45:13.534Z,94
2023-03-25T00:46:20.414Z,94
2023-03-25T00:47:27.193Z,91
2023-03-25T00:48:34.052Z,84
2023-03-25T00:49:40.888Z,79
2023-03-25T00:50:48.559Z,80
2023-03-25T00:51:55.407Z,86
2023-03-25T00:53:02.199Z,85
2023-03-25T00:54:09.051Z,78
2023-03-25T00:55:15.924Z,83
2023-03-25T00:56:22.756Z,79
2023-03-25T00:57:29.555Z,78
2023-03-25T00:58:36.342Z,86
2023-03-25T00:59:43.255Z,81
2023-03-25T01:00:50.179Z,89
2023-03-25T01:01:57.040Z,86
2023-03-25T01:03:04.117Z,84
2023-03-25T01:04:10.824Z,85
2023-03-25T01:05:17.613Z,81
2023-03-25T01:06:24.473Z,86
2023-03-25T01:07:36.323Z,88
2023-03-25T01:08:43.200Z,90
2023-03-25T01:09:50.867Z,89
2023-03-25T01:10:57.782Z,96
2023-03-25T01:12:04.684Z,93
2023-03-25T01:13:11.518Z,100
2023-03-25T01:14:18.470Z,100
2023-03-25T01:15:25.429Z,99
2023-03-25T01:16:32.277Z,99
2023-03-25T01:17:39.147Z,105
2023-03-25T01:18:45.997Z,110
2023-03-25T01:19:52.778Z,105
2023-03-25T01:20:59.709Z,109
2023-03-25T01:22:06.676Z,103
2023-03-25T01:23:13.445Z,107
2023-03-25T01:24:20.233Z,104
2023-03-25T01:25:27.077Z,96
2023-03-25T01:26:33.940Z,93
2023-03-25T01:27:40.773Z,95
2023-03-25T01:28:47.600Z,97
2023-03-25T01:29:54.507Z,95
2023-03-25T01:31:01.434Z,93
2023-03-25T01:32:08.303Z,99
2023-03-25T01:33:15.195Z,101
2023-03-25T01:34:21.973Z,113
2023-03-25T01:35:28.883Z,106
2023-03-25T01:36:35.698Z,107
2023-03-25T01:37:42.470Z,101
2023-03-25T01:38:49.302Z,91
2023-03-25T01:39:56.205Z,95
2023-03-25T01:41:03.010Z,95
2023-03-25T01:42:10.042Z,97
2023-03-25T01:43:17.741Z,96
2023-03-25T01:44:24.633Z,96
2023-03-25T01:45:31.425Z,99
2023-03-25T01:46:39.115Z,88
2023-03-25T01:47:48.739Z,82
2023-03-25T01:48:55.515Z,77
2023-03-25T01:50:02.356Z,74
2023-03-25T01:51:09.317Z,75
2023-03-25T01:52:16.218Z,66
2023-03-25T01:53:25.930Z,63
2023-03-25T01:54:32.787Z,56
2023-03-25T01:55:39.551Z,63
2023-03-25T01:56:46.348Z,59
2023-03-25T01:57:53.170Z,53
2023-03-25T01:59:00.036Z,48
2023-03-25T02:00:06.948Z,47
2023-03-25T02:01:15.032Z,46
2023-03-25T02:02:21.830Z,39
2023-03-25T02:03:28.766Z,38
2023-03-25T02:04:35.588Z,38
2023-03-25T02:05:50.585Z,33
2023-03-25T02:07:02.206Z,30
2023-03-25T02:08:09.033Z,27
2023-03-25T02:09:15.869Z,37
2023-03-25T02:10:22.703Z,25
2023-03-25T02:11:29.940Z,25
2023-03-25T02:12:36.712Z,27
2023-03-25T02:13:43.561Z,33
2023-03-25T02:14:50.468Z,27
2023-03-25T02:15:57.378Z,25
2023-03-25T02:17:11.840Z,32
2023-03-25T02:18:23.853Z,31
2023-03-25T02:19:30.609Z,34
2023-03-25T02:20:45.453Z,36
2023-03-25T02:22:02.379Z,37
2023-03-25T02:23:19.439Z,42
2023-03-25T02:24:36.345Z,43
2023-03-25T02:25:53.376Z,42
2023-03-25T02:27:05.362Z,46
2023-03-25T02:28:12.164Z,45
2023-03-25T02:29:29.129Z,54
2023-03-25T02:30:41.048Z,50
2023-03-25T02:31:55.793Z,54
2023-03-25T02:33:08.308Z,58
2023-03-25T02:34:25.372Z,62
2023-03-25T02:35:42.372Z,55
2023-03-25T02:36:54.275Z,59
2023-03-25T02:38:11.191Z,56
2023-03-25T02:39:23.060Z,56
2023-03-25T02:40:37.808Z,58
2023-03-25T02:41:50.328Z,56
2023-03-25T02:42:57.111Z,62
2023-03-25T02:44:14.036Z,64
2023-03-25T02:45:31.092Z,59
2023-03-25T02:46:37.835Z,63
2023-03-25T02:47:44.746Z,63
2023-03-25T02:48:51.492Z,63
2023-03-25T02:50:03.361Z,63
2023-03-25T02:51:18.116Z,63
2023-03-25T02:52:25.042Z,68
2023-03-25T02:53:36.876Z,63
2023-03-25T02:54:43.653Z,70
2023-03-25T02:55:50.636Z,68
2023-03-25T02:56:57.415Z,70
2023-03-25T02:58:04.225Z,62
2023-03-25T02:59:11.188Z,65
2023-03-25T03:00:18.030Z,67
2023-03-25T03:01:24.919Z,63
2023-03-25T03:02:31.977Z,66
2023-03-25T03:03:38.874Z,67
2023-03-25T03:04:45.654Z,66
2023-03-25T03:05:52.739Z,69
2023-03-25T03:06:59.544Z,74
2023-03-25T03:08:06.388Z,79
2023-03-25T03:09:16.746Z,79
2023-03-25T03:10:28.629Z,77
2023-03-25T03:11:40.547Z,82
2023-03-25T03:12:49.880Z,87
2023-03-25T03:14:04.738Z,80
2023-03-25T03:15:16.577Z,77
2023-03-25T03:16:31.331Z,78
2023-03-25T03:17:48.250Z,76
2023-03-25T03:19:00.846Z,71
2023-03-25T03:20:12.673Z,65
2023-03-25T03:21:29.721Z,67
2023-03-25T03:22:36.579Z,59
2023-03-25T03:23:45.330Z,61
2023-03-25T03:24:55.724Z,67
2023-03-25T03:26:08.015Z,70
2023-03-25T03:27:20.660Z,74
2023-03-25T03:28:30.036Z,79
2023-03-25T03:29:43.214Z,74
2023-03-25T03:30:50.077Z,82
2023-03-25T03:32:07.522Z,81
2023-03-25T03:33:21.784Z,77
2023-03-25T03:34:29.526Z,82
2023-03-25T03:35:44.096Z,80
2023-03-25T03:36:58.873Z,83
2023-03-25T03:38:05.774Z,77
2023-03-25T03:39:15.744Z,79
2023-03-25T03:40:22.618Z,73
2023-03-25T03:41:29.481Z,79
2023-03-25T03:42:36.242Z,73
2023-03-25T03:43:45.849Z,73
2023-03-25T03:44:55.670Z,73
2023-03-25T03:46:02.525Z,85
2023-03-25T03:47:09.555Z,83
2023-03-25T03:48:16.389Z,88
2023-03-25T03:49:28.581Z,87
2023-03-25T03:50:40.506Z,86
2023-03-25T03:51:47.610Z,85
2023-03-25T03:52:57.598Z,77
2023-03-25T03:54:06.394Z,77
2023-03-25T03:55:18.329Z,75
2023-03-25T03:56:31.204Z,73
2023-03-25T03:57:41.116Z,71
2023-03-25T03:58:47.926Z,70
2023-03-25T03:59:54.817Z,75
2023-03-25T04:01:11.776Z,75
2023-03-25T04:02:18.623Z,82
2023-03-25T04:03:32.160Z,81
2023-03-25T04:04:47.118Z,86
2023-03-25T04:05:54.192Z,81
2023-03-25T04:07:01.082Z,100
2023-03-25T04:08:10.732Z,91
2023-03-25T04:09:17.576Z,84
2023-03-25T04:10:30.420Z,89
2023-03-25T04:11:37.189Z,95
2023-03-25T04:12:44.079Z,93
2023-03-25T04:13:56.569Z,90
2023-03-25T04:15:03.417Z,94
2023-03-25T04:16:10.487Z,94
2023-03-25T04:17:17.322Z,93
2023-03-25T04:18:24.157Z,95
2023-03-25T04:19:31.005Z,93
2023-03-25T04:20:37.893Z,85
2023-03-25T04:21:47.780Z,84
2023-03-25T04:22:54.570Z,87
2023-03-25T04:24:01.759Z,91
2023-03-25T04:25:08.609Z,83
2023-03-25T04:26:15.407Z,86
2023-03-25T04:27:22.145Z,85
2023-03-25T04:28:29.053Z,88
2023-03-25T04:29:35.899Z,88
2023-03-25T04:30:42.729Z,92
2023-03-25T04:31:49.615Z,86
2023-03-25T04:32:56.390Z,87
2023-03-25T04:34:03.234Z,86
2023-03-25T04:35:10.049Z,82
2023-03-25T04:36:19.665Z,80
2023-03-25T04:37:26.500Z,83
2023-03-25T04:38:33.478Z,94
2023-03-25T04:39:40.288Z,96
2023-03-25T04:40:47.159Z,87
2023-03-25T04:41:53.910Z,99
2023-03-25T04:43:00.818Z,101
2023-03-25T04:44:07.683Z,101
2023-03-25T04:45:14.549Z,96
2023-03-25T04:46:21.355Z,86
2023-03-25T04:47:28.202Z,98
2023-03-25T04:48:35.054Z,88
2023-03-25T04:49:41.930Z,89
2023-03-25T04:50:48.752Z,89
2023-03-25T04:51:55.546Z,88
2023-03-25T04:53:02.434Z,85
2023-03-25T04:54:09.257Z,83
2023-03-25T04:55:16.244Z,81
2023-03-25T04:56:23.081Z,84
2023-03-25T04:57:29.929Z,87
2023-03-25T04:58:36.769Z,84
2023-03-25T04:59:43.631Z,85
2023-03-25T05:00:50.493Z,82
2023-03-25T05:01:57.428Z,80
2023-03-25T05:03:04.312Z,87
2023-03-25T05:04:11.112Z,82
2023-03-25T05:05:17.997Z,87
2023-03-25T05:06:27.383Z,76
2023-03-25T05:07:37.070Z,79
2023-03-25T05:08:43.987Z,77
2023-03-25T05:09:50.766Z,80
2023-03-25T05:10:57.574Z,86
2023-03-25T05:12:04.444Z,74
2023-03-25T05:13:11.326Z,77
2023-03-25T05:14:18.339Z,81
2023-03-25T05:15:25.272Z,74
2023-03-25T05:16:32.200Z,75
2023-03-25T05:17:39.063Z,70
2023-03-25T05:18:46.758Z,76
2023-03-25T05:19:53.605Z,68
2023-03-25T05:21:00.485Z,69
2023-03-25T05:22:07.488Z,74
2023-03-25T05:23:14.280Z,68
2023-03-25T05:24:21.127Z,74
2023-03-25T05:25:27.930Z,76
2023-03-25T05:26:34.719Z,79
2023-03-25T05:27:41.564Z,74
2023-03-25T05:28:48.453Z,82
2023-03-25T05:29:55.224Z,73
2023-03-25T05:31:02.038Z,76
2023-03-25T05:32:13.851Z,75
2023-03-25T05:33:23.608Z,73
2023-03-25T05:34:30.435Z,79
2023-03-25T05:35:38.210Z,79
2023-03-25T05:36:45.001Z,82
2023-03-25T05:37:51.912Z,77
2023-03-25T05:38:59.535Z,76
2023-03-25T05:40:14.834Z,86
2023-03-25T05:41:13.723Z,79
2023-03-25T05:42:20.540Z,85
2023-03-25T05:43:27.475Z,82
2023-03-25T05:44:34.474Z,82
2023-03-25T05:45:42.055Z,77
2023-03-25T05:46:48.873Z,77
2023-03-25T05:47:55.673Z,81
2023-03-25T05:49:02.489Z,80
2023-03-25T05:50:09.369Z,86
2023-03-25T05:51:17.027Z,82
2023-03-25T05:52:26.816Z,78
2023-03-25T05:53:33.632Z,82
2023-03-25T05:54:40.445Z,77
2023-03-25T05:55:47.264Z,84
2023-03-25T05:56:54.272Z,79
2023-03-25T05:58:01.084Z,94
2023-03-25T05:59:07.894Z,90
2023-03-25T06:00:14.757Z,91
2023-03-25T06:01:32.476Z,93
2023-03-25T06:02:28.584Z,92
2023-03-25T06:03:35.602Z,101
2023-03-25T06:04:42.303Z,101
2023-03-25T06:05:49.353Z,109
2023-03-25T06:06:56.057Z,112
2023-03-25T06:08:02.864Z,107
2023-03-25T06:09:09.751Z,109
2023-03-25T06:10:16.693Z,110
2023-03-25T06:11:23.518Z,111
2023-03-25T06:12:30.355Z,112
2023-03-25T06:13:37.228Z,110
2023-03-25T06:14:44.167Z,102
2023-03-25T06:15:51.357Z,113
2023-03-25T06:16:58.027Z,102
2023-03-25T06:18:04.845Z,97
2023-03-25T06:19:11.677Z,103
2023-03-25T06:20:22.012Z,103
2023-03-25T06:21:28.953Z,96
2023-03-25T06:22:38.820Z,92
2023-03-25T06:23:48.264Z,96
2023-03-25T06:24:55.140Z,99
2023-03-25T06:26:01.976Z,90
2023-03-25T06:27:11.331Z,88
2023-03-25T06:28:18.163Z,79
2023-03-25T06:29:25.051Z,71
2023-03-25T06:30:31.935Z,67
2023-03-25T06:31:38.881Z,63
2023-03-25T06:32:45.926Z,55
2023-03-25T06:33:52.787Z,54
2023-03-25T06:34:59.660Z,51
2023-03-25T06:36:06.641Z,39
2023-03-25T06:37:13.601Z,36
2023-03-25T06:38:20.520Z,47
2023-03-25T06:39:27.441Z,30
2023-03-25T06:40:34.312Z,30
2023-03-25T06:41:41.153Z,30
2023-03-25T06:42:48.008Z,40
2023-03-25T06:43:54.912Z,25
2023-03-25T06:45:01.686Z,28
2023-03-25T06:46:08.852Z,25
2023-03-25T06:47:15.679Z,28
2023-03-25T06:48:22.493Z,25
2023-03-25T06:49:29.401Z,25
2023-03-25T06:50:36.284Z,27
2023-03-25T06:51:43.172Z,28
2023-03-25T06:52:50.090Z,27
2023-03-25T06:53:57.754Z,26
2023-03-25T06:55:04.597Z,25
2023-03-25T06:56:11.620Z,25
2023-03-25T06:57:18.616Z,32
2023-03-25T06:58:25.444Z,25
2023-03-25T06:59:32.335Z,29
2023-03-25T07:00:39.157Z,25
2023-03-25T07:01:46.119Z,30
2023-03-25T07:02:53.021Z,35
2023-03-25T07:03:59.811Z,30
2023-03-25T07:05:06.749Z,33
2023-03-25T07:06:13.585Z,25
2023-03-25T07:07:20.431Z,31
2023-03-25T07:08:27.351Z,27
2023-03-25T07:09:34.166Z,29
2023-03-25T07:10:40.993Z,32
2023-03-25T07:11:48.678Z,31
2023-03-25T07:12:55.519Z,37
2023-03-25T07:14:02.581Z,37
2023-03-25T07:15:09.547Z,37
2023-03-25T07:16:16.418Z,28
2023-03-25T07:17:25.996Z,36
2023-03-25T07:18:32.770Z,38
2023-03-25T07:19:40.387Z,35
2023-03-25T07:20:48.134Z,25
2023-03-25T07:21:55.010Z,36
2023-03-25T07:23:02.018Z,36
2023-03-25T07:24:09.071Z,33
2023-03-25T07:25:15.911Z,32
2023-03-25T07:26:22.728Z,30
2023-03-25T07:27:29.527Z,28
2023-03-25T07:28:36.471Z,32
2023-03-25T07:29:43.370Z,27
2023-03-25T07:30:50.213Z,29
2023-03-25T07:31:57.044Z,25
2023-03-25T07:33:03.924Z,28
2023-03-25T07:34:10.831Z,32
2023-03-25T07:35:17.765Z,29
2023-03-25T07:36:24.504Z,25
2023-03-25T07:37:31.307Z,34
2023-03-25T07:38:38.121Z,33
2023-03-25T07:39:45.020Z,25
2023-03-25T07:40:52.017Z,25
2023-03-25T07:41:58.842Z,34
2023-03-25T07:43:05.717Z,27
2023-03-25T07:44:12.578Z,25
2023-03-25T07:45:19.367Z,31
2023-03-25T07:46:26.307Z,26
2023-03-25T07:47:34.011Z,31
2023-03-25T07:48:41.596Z,25
2023-03-25T07:49:48.462Z,33
2023-03-25T07:50:55.266Z,30
2023-03-25T07:52:02.273Z,33
2023-03-25T07:53:10.010Z,30
2023-03-25T07:54:16.930Z,25
2023-03-25T07:55:24.568Z,33
2023-03-25T07:56:31.447Z,36
2023-03-25T07:57:38.242Z,25
2023-03-25T07:58:45.282Z,25
2023-03-25T07:59:52.128Z,25
2023-03-25T08:00:59.000Z,30
2023-03-25T08:02:05.866Z,30
2023-03-25T08:03:12.962Z,30
2023-03-25T08:04:19.799Z,32
2023-03-25T08:05:26.668Z,27
2023-03-25T08:06:33.639Z,37
2023-03-25T08:07:40.568Z,25
2023-03-25T08:08:47.425Z,26
2023-03-25T08:09:54.235Z,25
2023-03-25T08:11:01.924Z,35
2023-03-25T08:12:08.850Z,33
2023-03-25T08:13:15.669Z,44
2023-03-25T08:14:22.539Z,30
2023-03-25T08:15:29.436Z,35
2023-03-25T08:16:36.236Z,36
2023-03-25T08:17:43.224Z,38
2023-03-25T08:18:50.172Z,25
2023-03-25T08:19:56.996Z,35
2023-03-25T08:21:03.888Z,29
2023-03-25T08:22:10.771Z,32
2023-03-25T08:23:19.570Z,33
2023-03-25T08:24:25.378Z,25
2023-03-25T08:25:32.199Z,29
2023-03-25T08:26:39.037Z,27
2023-03-25T08:27:45.816Z,25
2023-03-25T08:28:52.690Z,25
2023-03-25T08:29:59.614Z,34
2023-03-25T08:31:06.448Z,35
2023-03-25T08:32:14.133Z,25
2023-03-25T08:33:21.013Z,27
2023-03-25T08:34:28.595Z,32
2023-03-25T08:35:35.303Z,40
2023-03-25T08:36:42.171Z,30
2023-03-25T08:37:48.939Z,29
2023-03-25T08:38:55.775Z,33
2023-03-25T08:40:02.633Z,28
2023-03-25T08:41:09.665Z,40
2023-03-25T08:42:17.585Z,34
2023-03-25T08:43:24.474Z,32
2023-03-25T08:44:31.262Z,32
2023-03-25T08:45:38.124Z,25
2023-03-25T08:46:45.034Z,32
2023-03-25T08:47:51.815Z,41
2023-03-25T08:48:58.750Z,33
2023-03-25T08:50:05.581Z,33
2023-03-25T08:51:13.491Z,32
2023-03-25T08:52:20.366Z,27
2023-03-25T08:53:28.111Z,26
2023-03-25T08:54:35.107Z,27
2023-03-25T08:55:41.984Z,30
2023-03-25T08:56:48.891Z,35
2023-03-25T08:57:56.939Z,44
2023-03-25T08:59:06.592Z,25
2023-03-25T09:00:13.434Z,27
2023-03-25T09:01:20.464Z,28
2023-03-25T09:02:27.236Z,27
2023-03-25T09:03:34.100Z,25
2023-03-25T09:04:41.019Z,30
2023-03-25T09:05:47.862Z,53
2023-03-25T09:07:11.658Z,37
2023-03-25T09:08:01.696Z,44
2023-03-25T09:09:08.614Z,52
2023-03-25T09:10:15.427Z,64
2023-03-25T09:11:30.402Z,39
2023-03-25T09:12:29.258Z,25
2023-03-25T09:13:36.139Z,28
2023-03-25T09:14:43.013Z,27
2023-03-25T09:15:50.152Z,37
2023-03-25T09:16:58.595Z,56
2023-03-25T09:18:05.374Z,46
2023-03-25T09:19:12.145Z,36
2023-03-25T09:20:21.819Z,43
2023-03-25T09:21:30.247Z,38
2023-03-25T09:22:37.011Z,27
2023-03-25T09:23:43.881Z,39
2023-03-25T09:24:50.647Z,29
2023-03-25T09:25:57.402Z,28
2023-03-25T09:27:04.219Z,29
2023-03-25T09:28:11.028Z,40
2023-03-25T09:29:17.857Z,34
2023-03-25T09:30:24.734Z,40
2023-03-25T09:31:31.508Z,41
2023-03-25T09:32:38.420Z,40
2023-03-25T09:33:45.223Z,41
2023-03-25T09:34:52.171Z,36
2023-03-25T09:35:59.054Z,29
2023-03-25T09:37:05.763Z,43
2023-03-25T09:38:12.573Z,25
2023-03-25T09:39:19.377Z,39
2023-03-25T09:40:26.257Z,36
2023-03-25T09:41:33.148Z,32
2023-03-25T09:42:45.020Z,34
2023-03-25T09:43:57.749Z,34
2023-03-25T09:45:14.826Z,28
2023-03-25T09:46:26.624Z,25
2023-03-25T09:47:33.550Z,46
2023-03-25T09:48:40.263Z,27
2023-03-25T09:49:47.088Z,44
2023-03-25T09:50:53.895Z,35
2023-03-25T09:52:06.407Z,39
2023-03-25T09:53:18.283Z,36
2023-03-25T09:54:30.228Z,25
2023-03-25T09:55:36.973Z,25
2023-03-25T09:56:43.725Z,46
2023-03-25T09:57:50.509Z,31
2023-03-25T09:58:57.300Z,38
2023-03-25T10:00:09.190Z,35
2023-03-25T10:01:19.080Z,35
2023-03-25T10:02:30.923Z,40
2023-03-25T10:03:40.319Z,39
2023-03-25T10:04:57.385Z,27
2023-03-25T10:06:14.252Z,26
2023-03-25T10:07:23.815Z,35
2023-03-25T10:08:38.706Z,52
2023-03-25T10:09:55.612Z,44
2023-03-25T10:11:04.829Z,37
2023-03-25T10:12:11.571Z,32
2023-03-25T10:13:26.221Z,27
2023-03-25T10:14:35.672Z,46
2023-03-25T10:15:50.671Z,38
2023-03-25T10:17:00.211Z,41
2023-03-25T10:18:17.132Z,38
2023-03-25T10:19:31.880Z,43
2023-03-25T10:20:46.774Z,40
2023-03-25T10:21:58.633Z,40
2023-03-25T10:23:08.316Z,32
2023-03-25T10:24:15.198Z,43
2023-03-25T10:25:22.143Z,34
2023-03-25T10:26:28.825Z,35
2023-03-25T10:27:40.714Z,25
2023-03-25T10:28:50.593Z,42
2023-03-25T10:30:00.376Z,31
2023-03-25T10:31:17.430Z,55
2023-03-25T10:32:24.277Z,55
2023-03-25T10:33:34.078Z,64
2023-03-25T10:34:40.800Z,51
2023-03-25T10:35:47.766Z,56
2023-03-25T10:36:54.499Z,58
2023-03-25T10:38:03.340Z,58
2023-03-25T10:39:15.990Z,43
2023-03-25T10:40:22.867Z,45
2023-03-25T10:41:29.682Z,31
2023-03-25T10:42:38.937Z,32
2023-03-25T10:43:45.779Z,25
2023-03-25T10:44:52.612Z,42
2023-03-25T10:46:00.699Z,35
2023-03-25T10:47:12.559Z,29
2023-03-25T10:48:19.338Z,31
2023-03-25T10:49:26.330Z,55
2023-03-25T10:50:33.095Z,53
2023-03-25T10:51:39.970Z,56
2023-03-25T10:52:46.726Z,47
2023-03-25T10:53:53.540Z,46
2023-03-25T10:55:00.379Z,54
2023-03-25T10:56:07.227Z,48
2023-03-25T10:57:16.973Z,45
2023-03-25T10:58:23.694Z,29
2023-03-25T10:59:30.471Z,42
2023-03-25T11:00:42.326Z,34
2023-03-25T11:01:49.049Z,48
2023-03-25T11:02:55.925Z,31
2023-03-25T11:04:02.805Z,28
2023-03-25T11:05:09.767Z,36
2023-03-25T11:06:16.568Z,42
2023-03-25T11:07:31.359Z,39
2023-03-25T11:08:41.036Z,34
2023-03-25T11:09:57.936Z,38
2023-03-25T11:11:14.930Z,37
2023-03-25T11:12:27.557Z,34
2023-03-25T11:13:28.599Z,30
2023-03-25T11:14:35.386Z,27
2023-03-25T11:15:42.197Z,33
2023-03-25T11:16:48.937Z,30
2023-03-25T11:17:55.919Z,44
2023-03-25T11:19:05.763Z,30
2023-03-25T11:20:12.563Z,29
2023-03-25T11:21:22.238Z,26
2023-03-25T11:22:29.015Z,37
2023-03-25T11:23:35.778Z,32
2023-03-25T11:24:47.597Z,37
2023-03-25T11:25:54.347Z,33
2023-03-25T11:27:01.209Z,50
2023-03-25T11:28:08.120Z,45
2023-03-25T11:29:17.925Z,28
2023-03-25T11:30:24.750Z,26
2023-03-25T11:31:31.547Z,26
2023-03-25T11:32:38.386Z,25
2023-03-25T11:33:45.077Z,28
2023-03-25T11:34:52.007Z,35
2023-03-25T11:35:58.835Z,34
2023-03-25T11:37:15.740Z,43
2023-03-25T11:38:25.451Z,38
2023-03-25T11:39:32.280Z,41
2023-03-25T11:40:39.044Z,42
2023-03-25T11:41:53.873Z,25
2023-03-25T11:43:00.739Z,36
2023-03-25T11:44:07.649Z,33
2023-03-25T11:45:14.582Z,42
2023-03-25T11:46:24.154Z,34
2023-03-25T11:47:30.929Z,41
2023-03-25T11:48:37.733Z,46
2023-03-25T11:49:44.565Z,49
2023-03-25T11:50:51.357Z,47
2023-03-25T11:51:58.225Z,50
2023-03-25T11:53:10.137Z,45
2023-03-25T11:54:17.017Z,39
2023-03-25T11:55:25.124Z,45
2023-03-25T11:56:31.886Z,66
2023-03-25T11:57:43.801Z,50
2023-03-25T11:58:50.552Z,64
2023-03-25T11:59:57.498Z,43
2023-03-25T12:01:04.276Z,54
2023-03-25T12:02:21.211Z,52
2023-03-25T12:03:33.152Z,53
2023-03-25T12:04:39.832Z,47
2023-03-25T12:05:56.798Z,43
2023-03-25T12:07:08.698Z,44
2023-03-25T12:08:15.467Z,34
2023-03-25T12:09:22.270Z,44
2023-03-25T12:10:29.140Z,36
2023-03-25T12:11:35.916Z,45
2023-03-25T12:12:45.431Z,44
2023-03-25T12:13:52.384Z,34
2023-03-25T12:15:04.273Z,40
2023-03-25T12:16:13.929Z,47
2023-03-25T12:17:26.026Z,44
2023-03-25T12:18:42.897Z,46
2023-03-25T12:19:59.901Z,39
2023-03-25T12:21:16.828Z,37
2023-03-25T12:22:33.760Z,47
2023-03-25T12:23:45.648Z,33
2023-03-25T12:25:02.543Z,25
2023-03-25T12:26:14.419Z,32
2023-03-25T12:27:21.158Z,25
2023-03-25T12:28:36.085Z,30
2023-03-25T12:29:47.916Z,27
2023-03-25T12:31:02.641Z,31
2023-03-25T12:32:14.484Z,27
2023-03-25T12:33:24.450Z,28
2023-03-25T12:34:39.669Z,28
2023-03-25T12:35:48.715Z,29
2023-03-25T12:36:58.179Z,43
2023-03-25T12:38:15.100Z,44
2023-03-25T12:39:32.413Z,29
2023-03-25T12:40:36.590Z,29
2023-03-25T12:41:48.447Z,31
2023-03-25T12:42:57.820Z,31
2023-03-25T12:44:07.640Z,25
2023-03-25T12:45:14.513Z,35
2023-03-25T12:46:31.546Z,31
2023-03-25T12:47:48.512Z,35
2023-03-25T12:49:00.417Z,39
2023-03-25T12:50:07.345Z,32
2023-03-25T12:51:19.202Z,26
2023-03-25T12:52:29.034Z,32
2023-03-25T12:53:46.007Z,36
2023-03-25T12:54:57.888Z,36
2023-03-25T12:56:11.414Z,32
2023-03-25T12:57:22.266Z,28
2023-03-25T12:58:36.637Z,33
2023-03-25T12:59:51.522Z,26
2023-03-25T13:01:03.484Z,34
2023-03-25T13:02:20.412Z,29
2023-03-25T13:03:37.277Z,42
2023-03-25T13:04:51.898Z,48
2023-03-25T13:06:06.737Z,51
2023-03-25T13:07:21.332Z,45
2023-03-25T13:08:36.032Z,43
2023-03-25T13:09:45.497Z,34
2023-03-25T13:11:02.436Z,43
2023-03-25T13:12:14.276Z,35
2023-03-25T13:13:26.167Z,32
2023-03-25T13:14:32.981Z,36
2023-03-25T13:15:39.792Z,42
2023-03-25T13:16:49.588Z,48
2023-03-25T13:17:56.340Z,47
2023-03-25T13:19:05.806Z,40
2023-03-25T13:20:17.650Z,31
2023-03-25T13:21:24.509Z,27
2023-03-25T13:22:36.369Z,32
2023-03-25T13:23:45.967Z,25
2023-03-25T13:24:52.722Z,25
2023-03-25T13:25:59.624Z,25
2023-03-25T13:27:09.399Z,27
2023-03-25T13:28:16.213Z,33
2023-03-25T13:29:28.118Z,32
2023-03-25T13:30:34.943Z,39
2023-03-25T13:31:41.747Z,42
2023-03-25T13:32:48.616Z,30
2023-03-25T13:33:55.400Z,40
2023-03-25T13:35:10.017Z,43
2023-03-25T13:36:24.732Z,32
2023-03-25T13:37:31.599Z,45
2023-03-25T13:38:38.397Z,34
2023-03-25T13:39:53.283Z,41
2023-03-25T13:41:10.210Z,44
2023-03-25T13:42:22.078Z,50
2023-03-25T13:43:31.699Z,49
2023-03-25T13:44:46.608Z,51
2023-03-25T13:45:53.444Z,57
2023-03-25T13:47:05.354Z,51
2023-03-25T13:48:22.258Z,39
2023-03-25T13:49:34.119Z,36
2023-03-25T13:50:41.016Z,31
2023-03-25T13:51:47.773Z,33
2023-03-25T13:52:54.843Z,27
2023-03-25T13:54:04.540Z,27
2023-03-25T13:55:16.374Z,34
2023-03-25T13:56:26.240Z,25
2023-03-25T13:57:43.152Z,25
2023-03-25T13:59:00.027Z,33
2023-03-25T14:00:14.852Z,32
2023-03-25T14:01:31.961Z,30
2023-03-25T14:02:48.873Z,38
2023-03-25T14:04:03.860Z,38
2023-03-25T14:05:20.770Z,37
2023-03-25T14:06:32.555Z,30
2023-03-25T14:07:44.481Z,28
2023-03-25T14:08:51.364Z,25
2023-03-25T14:09:58.226Z,25
2023-03-25T14:11:15.108Z,32
2023-03-25T14:12:29.506Z,25
2023-03-25T14:13:41.389Z,45
2023-03-25T14:14:50.669Z,32
2023-03-25T14:15:57.559Z,40
2023-03-25T14:17:04.260Z,31
2023-03-25T14:18:11.135Z,31
2023-03-25T14:19:20.531Z,29
2023-03-25T14:20:35.097Z,36
2023-03-25T14:21:41.866Z,30
2023-03-25T14:22:48.702Z,31
2023-03-25T14:23:58.102Z,26
2023-03-25T14:25:07.819Z,28
2023-03-25T14:26:24.732Z,37
2023-03-25T14:27:31.539Z,32
2023-03-25T14:28:38.306Z,34
2023-03-25T14:29:45.192Z,26
2023-03-25T14:30:57.035Z,25
2023-03-25T14:32:14.153Z,28
2023-03-25T14:33:20.903Z,35
2023-03-25T14:34:27.687Z,35
2023-03-25T14:35:34.624Z,34
2023-03-25T14:36:43.835Z,35
2023-03-25T14:37:50.671Z,31
2023-03-25T14:38:57.511Z,32
2023-03-25T14:40:04.322Z,29
2023-03-25T14:41:21.277Z,34
2023-03-25T14:42:38.160Z,32
2023-03-25T14:43:55.090Z,37
2023-03-25T14:45:01.898Z,30
2023-03-25T14:46:18.936Z,31
2023-03-25T14:47:25.959Z,33
2023-03-25T14:48:32.661Z,35
2023-03-25T14:49:39.496Z,36
2023-03-25T14:50:56.385Z,41
2023-03-25T14:52:13.366Z,47
2023-03-25T14:53:20.138Z,56
2023-03-25T14:54:26.941Z,51
2023-03-25T14:55:33.738Z,59
2023-03-25T14:56:46.000Z,57
2023-03-25T14:57:57.876Z,54
2023-03-25T14:59:09.800Z,68
2023-03-25T15:00:16.693Z,74
2023-03-25T15:01:28.622Z,75
2023-03-25T15:02:35.441Z,78
2023-03-25T15:03:42.192Z,99
2023-03-25T15:04:48.964Z,94
2023-03-25T15:06:00.762Z,105
2023-03-25T15:07:05.411Z,121
2023-03-25T15:08:12.460Z,128
2023-03-25T15:09:19.514Z,119
2023-03-25T15:10:26.255Z,109
2023-03-25T15:11:33.092Z,122
2023-03-25T15:12:39.878Z,109
2023-03-25T15:13:46.685Z,116
2023-03-25T15:14:53.588Z,123
2023-03-25T15:16:00.443Z,118
2023-03-25T15:17:07.282Z,117
2023-03-25T15:18:14.072Z,120
2023-03-25T15:19:31.025Z,111
2023-03-25T15:20:42.918Z,124
2023-03-25T15:21:49.722Z,115
2023-03-25T15:23:01.622Z,113
2023-03-25T15:24:18.605Z,115
2023-03-25T15:25:25.367Z,118
2023-03-25T15:26:32.194Z,111
2023-03-25T15:27:44.081Z,109
2023-03-25T15:28:53.471Z,106
2023-03-25T15:30:10.344Z,91
2023-03-25T15:31:27.306Z,88
2023-03-25T15:32:39.114Z,89
2023-03-25T15:33:54.509Z,89
2023-03-25T15:34:59.529Z,89
2023-03-25T15:36:14.699Z,89
2023-03-25T15:37:30.509Z,89
2023-03-25T15:38:34.899Z,89
2023-03-25T15:39:47.625Z,89
2023-03-25T15:40:55.199Z,89
2023-03-25T15:42:10.326Z,89
2023-03-25T15:43:25.424Z,89
2023-03-25T15:44:40.497Z,89
2023-03-25T15:45:54.964Z,89
2023-03-25T15:47:13.437Z,92
2023-03-25T15:48:26.184Z,97
2023-03-25T15:49:38.060Z,106
2023-03-25T15:50:52.811Z,101
2023-03-25T15:52:09.539Z,104
2023-03-25T15:53:32.776Z,102
2023-03-25T15:54:39.066Z,96
2023-03-25T15:55:48.688Z,104
2023-03-25T15:56:58.448Z,93
2023-03-25T15:58:05.128Z,101
2023-03-25T15:59:16.998Z,103
2023-03-25T16:00:29.172Z,98
2023-03-25T16:01:39.226Z,105
2023-03-25T16:02:45.960Z,104
2023-03-25T16:03:58.432Z,99
2023-03-25T16:05:10.383Z,112
2023-03-25T16:06:17.284Z,108
2023-03-25T16:07:24.127Z,106
2023-03-25T16:08:31.163Z,112
2023-03-25T16:09:37.998Z,118
2023-03-25T16:10:44.921Z,117
2023-03-25T16:11:51.855Z,126
2023-03-25T16:13:01.536Z,115
2023-03-25T16:14:11.040Z,115
2023-03-25T16:15:17.847Z,118
2023-03-25T16:16:29.804Z,130